Carseland, Canada
Current Conditions -  °F | °C
As of 7:00 AM on Wednesday 28 Jan 2015 (Local Time) from CYYC Reporting Station
Broken Clouds Broken Clouds  
Wind Chill: 32°   Ceiling: 3600
Heat Index: 36°   Visibility: 15mi
Dew Point: 30°   Wind: 5mph
Humidity: 81%   Direction: 280°W
Pressure: 30.12"   Gusts: NA
Location:  50.85°N, 113.47°W
Report Text: CYYC 281400Z 28004KT 15SM BKN036 02/M01 A3012 RMK SC7 SLP233
Loading
Personal Weather Stations






























Interactive Weather Map New forecast layout! Learn more

10-Day Weather Forecast

Advertisements
Track Severe Weather on mobile